Time;durP1;ratioP1;P1;durP2;ratioP2;P2;SDS_P1;SDS_P2;PMS_P1;PMS_P2;Temp;Humidity;BMP_temperature;BMP_pressure;BME280_temperature;BME280_humidity;BME280_pressure;Samples;Min_cycle;Max_cycle;Signal;HPM_P1;HPM_P2
2023/08/13 00:01:39;;;;;;;4.18;3.50;;;;;;;21.07;63.85;101243.22;5052529;28;20042;-56
2023/08/13 00:04:05;;;;;;;4.60;3.50;;;;;;;20.46;65.63;101237.44;5071376;28;20021;-54
2023/08/13 00:06:31;;;;;;;5.93;3.60;;;;;;;20.61;66.06;101239.47;5073243;28;20032;-54
2023/08/13 00:08:58;;;;;;;4.78;3.58;;;;;;;20.77;65.54;101244.72;5076119;28;20490;-54
2023/08/13 00:11:24;;;;;;;6.20;3.67;;;;;;;20.50;66.40;101239.41;5074822;28;20390;-54
2023/08/13 00:13:50;;;;;;;3.65;3.35;;;;;;;20.53;66.93;101243.47;5086587;28;20127;-54
2023/08/13 00:16:16;;;;;;;4.30;3.15;;;;;;;20.51;66.75;101242.94;5077610;28;20017;-52
2023/08/13 00:18:43;;;;;;;3.97;3.30;;;;;;;20.38;67.33;101240.66;5086781;28;20031;-52
2023/08/13 00:21:09;;;;;;;4.85;3.30;;;;;;;20.27;68.04;101237.84;5092171;28;20055;-52
2023/08/13 00:23:35;;;;;;;3.70;3.30;;;;;;;20.10;68.03;101236.34;5099113;28;20123;-52
2023/08/13 00:26:02;;;;;;;6.53;3.67;;;;;;;20.14;68.24;101234.75;5075091;28;20020;-53
2023/08/13 00:28:28;;;;;;;4.60;3.50;;;;;;;19.83;69.17;101230.97;5092941;28;20097;-53
2023/08/13 00:30:55;;;;;;;3.83;3.47;;;;;;;19.65;70.80;101227.53;5085098;28;20024;-53
2023/08/13 00:33:21;;;;;;;5.55;3.92;;;;;;;19.28;71.64;101232.81;5075243;28;20056;-53
2023/08/13 00:35:49;;;;;;;4.07;3.63;;;;;;;19.21;72.19;101237.59;5078571;28;20223;-56
2023/08/13 00:38:15;;;;;;;5.00;3.83;;;;;;;18.79;74.14;101238.19;5082934;28;20070;-54
2023/08/13 00:40:41;;;;;;;4.45;4.03;;;;;;;19.01;73.80;101243.63;5092756;28;20378;-53
2023/08/13 00:43:08;;;;;;;3.85;3.55;;;;;;;18.90;73.62;101244.56;5093127;28;20107;-53
2023/08/13 00:45:35;;;;;;;3.83;3.42;;;;;;;18.68;74.60;101239.94;5094977;28;20485;-52
2023/08/13 00:48:04;;;;;;;4.45;3.90;;;;;;;18.26;76.91;101238.72;5094731;28;20435;-53
2023/08/13 00:50:31;;;;;;;4.22;3.72;;;;;;;18.47;76.84;101238.78;5094453;28;20081;-53
2023/08/13 00:52:57;;;;;;;7.43;4.00;;;;;;;18.46;76.59;101248.00;5076892;28;20044;-53
2023/08/13 00:55:23;;;;;;;4.20;3.80;;;;;;;18.49;76.53;101238.56;5077173;28;20085;-53
2023/08/13 00:57:50;;;;;;;4.65;3.63;;;;;;;18.48;76.45;101242.31;5094876;28;20412;-54
2023/08/13 01:00:17;;;;;;;4.63;4.22;;;;;;;18.48;76.75;101245.84;5092786;28;20470;-53
2023/08/13 01:02:43;;;;;;;3.83;3.53;;;;;;;18.25;77.19;101239.81;5094158;28;20473;-55
2023/08/13 01:05:10;;;;;;;4.80;3.45;;;;;;;17.98;78.50;101254.00;5094707;28;20049;-53
2023/08/13 01:07:54;;;;;;;5.13;4.15;;;;;;;18.06;77.91;101250.91;5094510;28;20032;-53
2023/08/13 01:10:23;;;;;;;4.18;3.00;;;;;;;17.97;78.07;101243.41;5094466;28;20389;-52
2023/08/13 01:12:53;;;;;;;5.22;2.45;;;;;;;18.12;76.48;101255.31;5093728;28;20039;-52
2023/08/13 01:15:39;;;;;;;2.60;2.40;;;;;;;18.04;76.97;101250.31;5094250;28;20051;-52
2023/08/13 01:18:07;;;;;;;2.65;2.35;;;;;;;17.96;77.73;101247.19;5092358;28;20207;-53
2023/08/13 01:20:37;;;;;;;2.45;2.20;;;;;;;17.81;78.09;101255.88;5090670;28;20448;-54
2023/08/13 01:23:04;;;;;;;3.17;2.88;;;;;;;17.57;78.71;101253.25;5074733;28;20040;-52
2023/08/13 01:25:32;;;;;;;4.97;2.50;;;;;;;17.49;79.89;101242.81;5074114;28;20036;-52
2023/08/13 01:28:15;;;;;;;2.50;2.30;;;;;;;17.55;79.48;101259.97;5073897;28;20039;-51
2023/08/13 01:30:56;;;;;;;2.72;2.47;;;;;;;17.54;79.93;101256.41;5088565;28;20032;-53
2023/08/13 01:33:29;;;;;;;3.13;2.80;;;;;;;17.32;81.36;101263.56;5093465;28;20154;-51
2023/08/13 01:35:58;;;;;;;2.90;2.60;;;;;;;17.37;80.72;101255.56;5093896;28;20477;-53
2023/08/13 01:38:29;;;;;;;3.25;2.65;;;;;;;17.52;80.88;101258.56;5093713;28;20066;-53
2023/08/13 01:40:59;;;;;;;3.40;2.58;;;;;;;17.32;80.83;101268.97;5083145;28;20108;-52
2023/08/13 01:43:26;;;;;;;2.60;2.40;;;;;;;17.39;80.75;101261.56;5090709;28;20036;-54
2023/08/13 01:45:52;;;;;;;3.47;2.38;;;;;;;17.29;80.63;101248.66;5093866;28;20035;-54
2023/08/13 01:48:19;;;;;;;3.13;2.20;;;;;;;17.40;79.68;101255.91;5093678;28;20069;-53
2023/08/13 01:50:45;;;;;;;2.30;2.10;;;;;;;17.17;80.99;101249.75;5093679;28;20061;-54
2023/08/13 01:53:11;;;;;;;2.17;1.98;;;;;;;17.12;81.44;101253.19;5093388;28;20018;-54
2023/08/13 01:55:38;;;;;;;2.88;2.30;;;;;;;17.25;80.77;101257.47;5093490;28;20535;-53
2023/08/13 01:58:04;;;;;;;2.88;2.63;;;;;;;17.33;81.50;101266.06;5093352;28;20035;-52
2023/08/13 02:00:30;;;;;;;3.17;2.47;;;;;;;17.17;81.76;101260.56;5093285;28;20021;-53
2023/08/13 02:02:57;;;;;;;2.83;2.45;;;;;;;17.15;81.85;101275.13;5093417;28;20024;-55
2023/08/13 02:05:23;;;;;;;2.58;2.38;;;;;;;16.85;83.97;101274.50;5093197;28;20031;-54
2023/08/13 02:07:49;;;;;;;4.35;2.85;;;;;;;16.77;84.23;101277.59;5093411;28;20020;-54
2023/08/13 02:10:15;;;;;;;3.17;2.90;;;;;;;16.81;84.41;101268.75;5092883;28;20441;-54
2023/08/13 02:12:43;;;;;;;5.22;3.10;;;;;;;16.61;85.52;101266.38;5096761;28;20034;-54
2023/08/13 02:15:09;;;;;;;3.28;2.90;;;;;;;16.59;86.41;101271.19;5093387;28;20389;-55
2023/08/13 02:17:36;;;;;;;4.63;3.53;;;;;;;16.41;87.50;101276.72;5081662;28;20031;-54
2023/08/13 02:20:03;;;;;;;4.03;3.63;;;;;;;16.31;87.89;101281.88;5072690;28;20440;-55
2023/08/13 02:22:29;;;;;;;4.10;3.70;;;;;;;16.34;88.26;101284.13;5073160;28;20506;-54
2023/08/13 02:24:55;;;;;;;4.35;3.95;;;;;;;16.39;88.02;101289.63;5072778;28;20028;-54
2023/08/13 02:27:22;;;;;;;5.03;3.80;;;;;;;16.26;88.64;101295.25;5089662;28;20043;-54
2023/08/13 02:29:48;;;;;;;7.50;3.80;;;;;;;16.37;88.55;101294.44;5091818;28;20024;-54
2023/08/13 02:32:14;;;;;;;4.82;4.32;;;;;;;16.24;89.02;101295.47;5090863;28;20074;-53
2023/08/13 02:34:45;;;;;;;5.53;4.18;;;;;;;16.40;88.15;101296.69;5092420;28;20058;-53
2023/08/13 02:37:12;;;;;;;5.55;3.85;;;;;;;16.41;87.60;101301.03;5096606;28;20024;-54
2023/08/13 02:39:38;;;;;;;6.13;3.72;;;;;;;16.45;87.59;101299.50;5092754;28;20039;-54
2023/08/13 02:42:04;;;;;;;4.05;3.72;;;;;;;16.52;87.07;101291.28;5092674;28;20024;-53
2023/08/13 02:44:31;;;;;;;5.88;3.58;;;;;;;16.52;87.29;101308.31;5092117;28;20039;-53
2023/08/13 02:46:57;;;;;;;5.85;4.43;;;;;;;16.31;87.70;101308.88;5093119;28;20036;-54
2023/08/13 02:49:24;;;;;;;5.18;4.20;;;;;;;16.34;87.37;101300.31;5092119;28;20030;-53
2023/08/13 02:51:50;;;;;;;4.72;3.83;;;;;;;16.23;88.47;101304.66;5083960;28;20032;-54
2023/08/13 02:54:16;;;;;;;5.85;4.72;;;;;;;15.98;90.69;101296.72;5072060;28;20029;-53
2023/08/13 02:56:42;;;;;;;5.63;4.95;;;;;;;16.00;90.65;101308.13;5072185;28;20029;-53
2023/08/13 02:59:09;;;;;;;4.68;4.20;;;;;;;16.10;90.67;101305.69;5072170;28;20501;-54
2023/08/13 03:01:38;;;;;;;6.07;5.45;;;;;;;15.77;92.56;101306.16;5091410;28;20036;-53
2023/08/13 03:04:05;;;;;;;9.32;5.88;;;;;;;15.81;92.56;101309.22;5102221;28;20028;-52
2023/08/13 03:06:32;;;;;;;5.18;4.72;;;;;;;15.74;92.56;101317.41;5095212;28;20043;-54
2023/08/13 03:08:58;;;;;;;5.40;4.90;;;;;;;15.89;91.93;101317.00;5092063;28;20028;-54
2023/08/13 03:11:24;;;;;;;5.85;4.80;;;;;;;15.78;92.59;101317.78;5085041;28;20072;-52
2023/08/13 03:13:52;;;;;;;6.85;6.22;;;;;;;15.79;92.74;101322.94;5079589;22;20068;-53
2023/08/13 03:16:20;;;;;;;6.80;6.03;;;;;;;15.80;93.13;101312.97;5035902;28;20029;-52
2023/08/13 03:18:46;;;;;;;7.35;6.63;;;;;;;15.59;94.20;101315.06;5047399;28;20042;-52
2023/08/13 03:21:12;;;;;;;7.18;6.47;;;;;;;15.57;94.56;101327.16;5032760;28;20024;-53
2023/08/13 03:23:39;;;;;;;7.32;6.63;;;;;;;15.65;94.42;101323.34;5047373;28;20050;-54
2023/08/13 03:26:05;;;;;;;7.22;6.43;;;;;;;15.64;94.68;101311.72;5041983;28;20032;-52
2023/08/13 03:28:33;;;;;;;8.63;7.72;;;;;;;15.67;94.25;101316.69;5036236;28;20495;-51
2023/08/13 03:31:01;;;;;;;8.30;6.82;;;;;;;15.64;94.54;101327.09;5031303;28;20608;-52
2023/08/13 03:33:27;;;;;;;9.20;8.27;;;;;;;15.38;96.56;101341.69;5033289;28;20060;-53
2023/08/13 03:35:53;;;;;;;9.52;6.93;;;;;;;15.50;96.16;101332.66;5051628;28;20032;-53
2023/08/13 03:38:20;;;;;;;9.18;8.05;;;;;;;15.62;95.60;101327.31;5052623;28;20037;-52
2023/08/13 03:40:46;;;;;;;9.18;8.15;;;;;;;15.61;95.76;101324.84;5049752;28;20618;-52
2023/08/13 03:43:12;;;;;;;7.85;6.93;;;;;;;15.54;95.71;101325.72;5045296;28;20025;-52
2023/08/13 03:45:38;;;;;;;8.90;8.00;;;;;;;15.45;96.47;101329.81;5031952;28;20387;-53
2023/08/13 03:48:05;;;;;;;8.60;7.63;;;;;;;15.36;97.31;101336.53;5041004;28;20036;-52
2023/08/13 03:50:31;;;;;;;9.40;8.18;;;;;;;15.52;96.64;101325.13;5050930;28;20037;-54
2023/08/13 03:52:57;;;;;;;8.27;7.35;;;;;;;15.37;97.53;101327.38;5050176;28;20133;-52
2023/08/13 03:55:23;;;;;;;8.95;7.47;;;;;;;15.49;96.52;101336.41;5050577;28;20032;-54
2023/08/13 03:57:52;;;;;;;11.27;8.82;;;;;;;15.36;97.96;101343.81;5051554;28;20491;-53
2023/08/13 04:00:19;;;;;;;10.75;9.25;;;;;;;15.48;96.86;101336.59;5049947;28;20029;-54
2023/08/13 04:02:50;;;;;;;11.77;9.55;;;;;;;15.50;96.77;101337.22;5050147;28;20029;-54
2023/08/13 04:05:16;;;;;;;11.75;9.75;;;;;;;15.58;96.46;101334.19;5051049;28;20086;-52
2023/08/13 04:07:43;;;;;;;9.65;8.10;;;;;;;15.49;96.74;101341.78;5051216;28;20068;-53
2023/08/13 04:10:09;;;;;;;9.57;8.52;;;;;;;15.64;95.38;101349.50;5050849;28;20029;-53
2023/08/13 04:12:35;;;;;;;9.65;8.18;;;;;;;15.53;96.13;101351.06;5048560;28;20029;-53
2023/08/13 04:15:03;;;;;;;9.35;8.35;;;;;;;15.47;96.56;101360.06;5050641;28;20053;-53
2023/08/13 04:17:29;;;;;;;11.07;9.18;;;;;;;15.53;96.65;101361.84;5051522;28;20048;-53
2023/08/13 04:19:55;;;;;;;8.93;8.00;;;;;;;15.58;95.71;101363.88;5044803;28;20041;-52
2023/08/13 04:22:22;;;;;;;8.65;7.75;;;;;;;15.64;95.65;101360.31;5042422;28;20057;-53
2023/08/13 04:24:51;;;;;;;10.70;8.15;;;;;;;15.59;95.77;101352.84;5050704;28;20033;-53
2023/08/13 04:27:18;;;;;;;9.93;8.73;;;;;;;15.53;96.84;101363.72;5051234;28;20379;-53
2023/08/13 04:29:44;;;;;;;8.80;7.90;;;;;;;15.39;97.75;101375.75;5050039;28;20047;-52
2023/08/13 04:32:11;;;;;;;8.30;7.15;;;;;;;15.45;97.10;101386.44;5049565;28;20032;-54
2023/08/13 04:34:37;;;;;;;9.38;7.13;;;;;;;15.48;96.88;101377.06;5050554;28;20048;-52
2023/08/13 04:37:04;;;;;;;6.72;5.95;;;;;;;15.45;97.01;101374.84;5050968;28;20156;-52
2023/08/13 04:39:30;;;;;;;7.60;6.80;;;;;;;15.42;97.79;101380.66;5051006;28;20080;-52
2023/08/13 04:42:00;;;;;;;11.60;7.70;;;;;;;15.40;97.65;101385.47;5049345;28;20376;-52
2023/08/13 04:44:27;;;;;;;7.70;6.30;;;;;;;15.55;97.07;101394.03;5050922;28;20033;-53
2023/08/13 04:46:53;;;;;;;8.88;7.10;;;;;;;15.39;98.29;101387.34;5050659;28;20025;-52
2023/08/13 04:49:20;;;;;;;10.05;7.30;;;;;;;15.26;98.73;101379.38;5050381;28;20041;-52
2023/08/13 04:51:46;;;;;;;7.40;6.57;;;;;;;15.30;98.46;101392.19;5047905;28;20039;-53
2023/08/13 04:54:12;;;;;;;8.45;7.40;;;;;;;15.25;98.09;101404.72;5053450;28;20029;-52
2023/08/13 04:56:39;;;;;;;9.15;7.72;;;;;;;15.27;98.72;101399.94;5054196;28;20083;-52
2023/08/13 04:59:06;;;;;;;6.90;6.20;;;;;;;15.34;98.53;101403.38;5054467;28;20479;-52
2023/08/13 05:01:32;;;;;;;8.18;6.95;;;;;;;15.23;99.61;101396.03;5054575;28;20033;-53
2023/08/13 05:03:59;;;;;;;7.78;6.97;;;;;;;15.17;99.70;101392.34;5052560;28;20487;-52
2023/08/13 05:06:25;;;;;;;8.60;6.78;;;;;;;15.36;98.45;101398.56;5054047;28;20037;-53
2023/08/13 05:08:51;;;;;;;7.68;6.88;;;;;;;15.38;98.12;101387.56;5054278;28;20021;-53
2023/08/13 05:11:17;;;;;;;8.50;5.63;;;;;;;15.36;98.67;101385.09;5052991;28;20032;-52
2023/08/13 05:13:44;;;;;;;8.00;6.30;;;;;;;15.30;98.69;101386.00;5052163;28;20087;-52
2023/08/13 05:16:10;;;;;;;8.55;6.38;;;;;;;15.18;99.43;101383.22;5054190;28;20060;-53
2023/08/13 05:18:36;;;;;;;11.02;6.68;;;;;;;15.14;100.00;101378.47;5053234;28;20076;-53
2023/08/13 05:21:03;;;;;;;8.48;6.25;;;;;;;15.25;99.75;101380.44;5052286;28;20446;-51
2023/08/13 05:23:29;;;;;;;7.70;5.55;;;;;;;15.40;98.55;101397.09;5053846;28;20025;-53
2023/08/13 05:25:56;;;;;;;9.15;5.97;;;;;;;15.28;98.93;101393.50;5053816;28;20025;-52
2023/08/13 05:28:22;;;;;;;6.90;5.63;;;;;;;15.26;99.22;101384.78;5053850;28;20044;-52
2023/08/13 05:30:48;;;;;;;8.80;5.35;;;;;;;15.30;99.33;101372.50;5051169;28;20119;-52
2023/08/13 05:33:14;;;;;;;7.95;6.18;;;;;;;15.25;99.32;101378.56;5052348;28;20509;-52
2023/08/13 05:35:41;;;;;;;5.35;4.55;;;;;;;15.21;98.72;101376.53;5053817;28;20498;-53
2023/08/13 05:38:07;;;;;;;5.65;5.05;;;;;;;15.37;97.80;101384.03;5053803;28;20372;-53
2023/08/13 05:40:33;;;;;;;8.70;6.75;;;;;;;15.37;97.73;101381.34;5048798;28;20037;-53
2023/08/13 05:43:00;;;;;;;7.53;6.15;;;;;;;15.24;98.88;101368.00;5053613;28;20032;-53
2023/08/13 05:45:26;;;;;;;8.15;5.63;;;;;;;15.33;97.56;101363.97;5053646;28;20047;-52
2023/08/13 05:47:52;;;;;;;7.28;5.72;;;;;;;15.19;98.78;101357.06;5053388;28;20029;-52
2023/08/13 05:50:18;;;;;;;8.85;6.50;;;;;;;15.22;98.80;101364.72;5053357;28;20119;-53
2023/08/13 05:52:45;;;;;;;8.57;6.55;;;;;;;15.21;98.39;101372.00;5046634;28;20025;-52
2023/08/13 05:55:11;;;;;;;11.52;7.47;;;;;;;15.06;99.04;101374.22;5053299;28;20118;-52
2023/08/13 05:57:37;;;;;;;8.15;6.40;;;;;;;15.12;99.68;101375.19;5049704;28;20025;-53
2023/08/13 06:00:10;;;;;;;9.88;7.25;;;;;;;15.10;99.33;101379.97;5064173;28;20029;-52
2023/08/13 06:02:37;;;;;;;8.48;6.07;;;;;;;14.96;100.00;101374.72;5051771;28;20029;-53
2023/08/13 06:05:06;;;;;;;8.88;6.20;;;;;;;15.03;100.00;101385.44;5052251;28;20525;-53
2023/08/13 06:07:33;;;;;;;8.55;5.78;;;;;;;15.20;99.48;101373.00;5053122;28;20029;-52
2023/08/13 06:10:01;;;;;;;8.73;6.95;;;;;;;15.03;100.00;101380.03;5049826;28;20032;-51
2023/08/13 06:12:28;;;;;;;10.20;6.32;;;;;;;14.99;100.00;101376.13;5053267;28;20044;-53
2023/08/13 06:14:54;;;;;;;6.45;5.28;;;;;;;15.10;100.00;101374.56;5052905;28;20055;-53
2023/08/13 06:17:20;;;;;;;7.47;5.30;;;;;;;15.09;99.46;101362.97;5053325;28;20112;-52
2023/08/13 06:19:46;;;;;;;7.15;5.85;;;;;;;15.03;100.00;101372.78;5050322;28;20033;-53
2023/08/13 06:22:14;;;;;;;8.10;6.22;;;;;;;15.16;99.80;101371.00;5052973;28;20052;-53
2023/08/13 06:24:40;;;;;;;7.28;6.13;;;;;;;15.18;99.64;101387.78;5053162;28;20025;-52
2023/08/13 06:27:06;;;;;;;7.05;5.47;;;;;;;15.29;99.13;101384.34;5052977;28;20021;-52
2023/08/13 06:29:33;;;;;;;7.43;6.18;;;;;;;15.20;98.82;101391.06;5052430;28;20025;-53
2023/08/13 06:31:59;;;;;;;6.20;5.47;;;;;;;15.23;98.00;101390.63;5049412;28;20376;-54
2023/08/13 06:34:25;;;;;;;6.65;5.43;;;;;;;15.25;97.98;101393.91;5052831;28;20025;-53
2023/08/13 06:36:53;;;;;;;6.88;4.97;;;;;;;15.23;97.18;101380.66;5052652;28;20044;-52
2023/08/13 06:39:23;;;;;;;7.38;5.60;;;;;;;15.10;98.42;101372.69;5052607;28;20071;-53
2023/08/13 06:41:50;;;;;;;7.10;5.55;;;;;;;15.04;98.37;101378.97;5049671;28;20422;-53
2023/08/13 06:44:18;;;;;;;5.93;5.30;;;;;;;15.03;99.21;101380.84;5053037;28;20035;-53
2023/08/13 06:46:48;;;;;;;5.25;4.28;;;;;;;15.17;97.89;101378.88;5052676;28;20116;-53
2023/08/13 06:49:15;;;;;;;5.10;4.43;;;;;;;15.11;98.12;101373.56;5050823;28;20025;-52
2023/08/13 06:51:41;;;;;;;7.57;4.97;;;;;;;15.07;98.63;101378.56;5049882;28;20136;-52
2023/08/13 06:54:08;;;;;;;4.60;3.67;;;;;;;15.12;97.94;101383.28;5052423;28;20032;-51
2023/08/13 06:56:35;;;;;;;6.03;3.95;;;;;;;15.23;97.11;101374.47;5051224;28;20032;-52
2023/08/13 06:59:02;;;;;;;5.18;3.78;;;;;;;15.18;97.33;101366.22;5050961;28;20024;-52
2023/08/13 07:01:30;;;;;;;4.75;4.18;;;;;;;14.99;98.44;101371.59;5052020;28;20021;-52
2023/08/13 07:03:59;;;;;;;7.32;4.20;;;;;;;15.05;98.66;101375.28;5051932;28;20079;-53
2023/08/13 07:06:26;;;;;;;4.25;3.75;;;;;;;15.05;98.15;101372.56;5050371;28;20443;-52
2023/08/13 07:08:52;;;;;;;5.80;5.03;;;;;;;14.96;98.03;101371.19;5052311;28;20406;-52
2023/08/13 07:11:19;;;;;;;4.95;4.45;;;;;;;14.93;97.97;101372.44;5052176;28;20036;-54
2023/08/13 07:13:45;;;;;;;6.18;5.38;;;;;;;15.04;97.74;101376.28;5051575;28;20114;-52
2023/08/13 07:16:13;;;;;;;5.25;4.63;;;;;;;14.98;97.91;101379.88;5050386;28;20032;-52
2023/08/13 07:18:42;;;;;;;4.75;4.30;;;;;;;14.90;99.24;101385.56;5049389;28;20518;-52
2023/08/13 07:21:08;;;;;;;5.20;4.65;;;;;;;14.92;99.24;101368.09;5031903;28;20032;-52
2023/08/13 07:23:35;;;;;;;6.40;4.50;;;;;;;14.87;99.33;101359.84;5045496;28;20432;-51
2023/08/13 07:26:01;;;;;;;4.50;4.07;;;;;;;14.95;99.17;101348.81;5051735;28;20035;-52
2023/08/13 07:28:29;;;;;;;4.82;4.25;;;;;;;14.97;98.64;101353.97;5049651;28;20017;-53
2023/08/13 07:30:55;;;;;;;5.82;4.20;;;;;;;14.90;98.63;101364.81;5050558;28;20029;-53
2023/08/13 07:33:22;;;;;;;5.18;3.67;;;;;;;15.01;98.00;101361.41;5051354;28;20025;-52
2023/08/13 07:35:48;;;;;;;5.18;4.07;;;;;;;15.06;97.43;101349.94;5050034;28;20043;-52
2023/08/13 07:38:15;;;;;;;5.60;4.63;;;;;;;14.94;97.94;101344.47;5051705;28;20549;-53
2023/08/13 07:40:41;;;;;;;4.97;4.47;;;;;;;15.12;97.48;101338.25;5051285;28;20029;-52
2023/08/13 07:43:07;;;;;;;5.90;4.82;;;;;;;15.09;97.28;101335.19;5051378;28;20021;-52
2023/08/13 07:45:34;;;;;;;5.28;4.45;;;;;;;15.04;98.17;101336.66;5051458;28;20083;-52
2023/08/13 07:48:00;;;;;;;4.07;3.47;;;;;;;15.12;97.20;101338.25;5051588;28;20021;-53
2023/08/13 07:50:26;;;;;;;4.40;4.00;;;;;;;15.11;97.18;101333.94;5050970;28;20021;-52
2023/08/13 07:52:52;;;;;;;3.67;3.15;;;;;;;15.23;96.69;101325.91;5051589;28;20025;-52
2023/08/13 07:55:19;;;;;;;4.10;3.70;;;;;;;15.29;95.93;101322.31;5032726;28;20026;-53
2023/08/13 07:57:45;;;;;;;4.07;3.58;;;;;;;15.19;96.99;101314.75;5046328;28;20021;-53
2023/08/13 08:00:12;;;;;;;3.88;3.03;;;;;;;15.15;96.53;101310.03;5051011;28;20383;-52
2023/08/13 08:02:39;;;;;;;2.47;2.20;;;;;;;15.15;96.14;101310.84;5051331;28;20021;-52
2023/08/13 08:05:07;;;;;;;4.40;1.90;;;;;;;15.18;96.71;101312.28;5048712;28;20029;-53
2023/08/13 08:07:33;;;;;;;2.22;2.03;;;;;;;15.10;97.24;101305.28;5040818;28;20029;-54
2023/08/13 08:10:00;;;;;;;2.85;2.30;;;;;;;14.94;97.95;101301.34;5038792;28;20029;-53
2023/08/13 08:12:27;;;;;;;3.17;2.60;;;;;;;15.01;97.87;101296.69;5044564;28;20383;-53
2023/08/13 08:14:54;;;;;;;2.75;2.17;;;;;;;15.04;98.52;101300.81;5054142;28;20554;-53
2023/08/13 08:17:20;;;;;;;2.78;2.10;;;;;;;14.87;98.82;101295.19;5050519;28;20035;-52
2023/08/13 08:19:48;;;;;;;2.20;2.00;;;;;;;14.88;99.33;101291.47;5051015;28;20035;-52
2023/08/13 08:22:15;;;;;;;2.15;1.92;;;;;;;14.88;99.14;101298.69;5051354;28;20490;-53
2023/08/13 08:24:41;;;;;;;3.08;2.25;;;;;;;14.95;98.95;101297.59;5051422;28;20094;-53
2023/08/13 08:27:09;;;;;;;2.10;1.67;;;;;;;14.99;98.37;101304.19;5038543;28;20030;-52
2023/08/13 08:29:36;;;;;;;1.80;1.67;;;;;;;14.93;98.82;101302.38;5034924;28;20044;-51
2023/08/13 08:32:02;;;;;;;2.85;2.10;;;;;;;14.96;98.84;101310.03;5052407;28;20074;-53
2023/08/13 08:34:30;;;;;;;2.55;1.92;;;;;;;14.93;98.85;101315.84;5055051;28;20031;-52
2023/08/13 08:36:57;;;;;;;2.20;1.88;;;;;;;14.96;99.13;101319.97;5055221;28;20048;-52
2023/08/13 08:39:23;;;;;;;3.38;2.03;;;;;;;15.05;98.83;101330.25;5054537;28;20067;-54
2023/08/13 08:41:55;;;;;;;3.05;2.45;;;;;;;14.97;99.61;101335.09;5054991;28;20059;-52
2023/08/13 08:44:22;;;;;;;2.72;2.00;;;;;;;15.07;99.04;101348.91;5054857;28;20449;-51
2023/08/13 08:46:53;;;;;;;3.13;2.00;;;;;;;15.15;98.54;101355.84;5054821;28;20147;-53
2023/08/13 08:49:23;;;;;;;2.28;2.03;;;;;;;15.08;98.84;101358.63;5054239;28;20091;-53
2023/08/13 08:51:50;;;;;;;2.15;1.88;;;;;;;15.18;98.60;101347.34;5049796;28;20035;-53
2023/08/13 08:54:18;;;;;;;2.88;2.50;;;;;;;15.18;98.31;101350.03;5053403;28;20040;-52
2023/08/13 08:56:44;;;;;;;4.70;3.00;;;;;;;15.07;98.97;101346.19;5054619;28;20033;-53
2023/08/13 08:59:11;;;;;;;3.72;2.72;;;;;;;15.11;98.82;101358.19;5052453;28;20035;-52
2023/08/13 09:01:37;;;;;;;3.15;2.85;;;;;;;15.23;98.23;101369.06;5051827;28;20074;-53
2023/08/13 09:04:04;;;;;;;3.50;3.20;;;;;;;15.00;98.62;101373.22;5035330;28;20054;-53
2023/08/13 09:07:00;;;;;;;3.30;2.72;;;;;;;15.19;97.39;101384.03;5054575;28;20475;-53
2023/08/13 09:09:27;;;;;;;2.35;1.80;;;;;;;15.24;96.05;101390.41;5052436;28;20040;-51
2023/08/13 09:11:54;;;;;;;2.55;2.10;;;;;;;15.01;97.98;101393.75;5053208;28;20029;-52
2023/08/13 09:14:22;;;;;;;2.50;1.55;;;;;;;15.08;97.78;101392.84;5053941;28;20119;-52
2023/08/13 09:16:50;;;;;;;1.42;1.25;;;;;;;15.17;96.92;101383.44;5054275;28;20166;-52
2023/08/13 09:19:18;;;;;;;1.55;1.10;;;;;;;15.23;96.28;101374.47;5052697;28;20033;-52
2023/08/13 09:21:53;;;;;;;1.83;1.70;;;;;;;15.29;95.87;101378.94;5052698;28;20043;-53
2023/08/13 09:24:34;;;;;;;1.33;1.20;;;;;;;15.23;95.83;101380.66;5053778;28;20032;-52
2023/08/13 09:27:02;;;;;;;1.63;1.20;;;;;;;15.28;95.71;101371.91;5054137;28;20478;-53
2023/08/13 09:29:30;;;;;;;2.30;1.30;;;;;;;15.40;94.93;101363.91;5052633;28;20029;-52
2023/08/13 09:31:57;;;;;;;1.30;1.20;;;;;;;15.38;94.31;101361.44;5051890;28;20052;-52
2023/08/13 09:34:25;;;;;;;1.25;1.15;;;;;;;15.35;94.73;101351.06;5054013;28;20036;-53
2023/08/13 09:36:53;;;;;;;1.48;1.27;;;;;;;15.40;93.98;101337.75;5053556;28;20029;-52
2023/08/13 09:39:24;;;;;;;2.20;1.25;;;;;;;15.36;93.93;101336.53;5053066;28;20100;-52
2023/08/13 09:41:52;;;;;;;2.03;1.42;;;;;;;15.44;93.81;101343.53;5052674;28;20414;-53
2023/08/13 09:44:20;;;;;;;1.55;1.17;;;;;;;15.22;94.37;101340.44;5053119;28;20060;-52
2023/08/13 09:46:53;;;;;;;2.20;1.65;;;;;;;15.23;94.71;101332.13;5053715;28;20542;-53
2023/08/13 09:49:22;;;;;;;2.35;1.30;;;;;;;15.27;94.46;101321.72;5053481;28;20067;-53
2023/08/13 09:51:51;;;;;;;1.40;1.30;;;;;;;15.28;93.81;101329.59;5051824;28;20102;-52
2023/08/13 09:54:48;;;;;;;1.38;1.23;;;;;;;15.20;94.71;101323.66;5053078;28;20497;-53
2023/08/13 09:57:17;;;;;;;1.50;1.40;;;;;;;15.20;95.26;101315.56;5051380;28;20053;-52
2023/08/13 09:59:45;;;;;;;3.85;2.38;;;;;;;14.95;97.05;101310.25;5053294;28;20025;-52
2023/08/13 10:02:13;;;;;;;1.67;1.50;;;;;;;15.02;96.57;101303.72;5051754;28;20037;-52
2023/08/13 10:04:40;;;;;;;1.75;1.52;;;;;;;14.88;97.75;101296.84;5053413;28;20128;-52
2023/08/13 10:07:07;;;;;;;1.67;1.45;;;;;;;14.94;97.63;101301.34;5053581;28;20025;-53
2023/08/13 10:09:35;;;;;;;1.58;1.48;;;;;;;15.00;97.04;101310.41;5053538;28;20149;-52
2023/08/13 10:12:09;;;;;;;2.88;1.52;;;;;;;14.93;97.37;101305.06;5051796;28;20036;-53
2023/08/13 10:14:36;;;;;;;2.00;1.80;;;;;;;14.81;98.76;101304.16;5052784;28;20040;-53
2023/08/13 10:17:06;;;;;;;1.58;1.35;;;;;;;14.84;99.26;101311.00;5053045;28;20478;-53
2023/08/13 10:19:39;;;;;;;3.97;1.52;;;;;;;14.93;98.78;101299.66;5050948;28;20033;-52
2023/08/13 10:22:09;;;;;;;1.73;1.58;;;;;;;14.88;98.86;101298.69;5053069;28;20594;-53
2023/08/13 10:24:35;;;;;;;2.17;1.98;;;;;;;14.65;100.00;101315.50;5053411;28;20084;-52
2023/08/13 10:27:02;;;;;;;1.88;1.73;;;;;;;14.82;100.00;101308.50;5052810;28;20124;-51
2023/08/13 10:29:41;;;;;;;2.17;1.98;;;;;;;14.78;100.00;101316.22;5045544;28;20053;-52
2023/08/13 10:32:15;;;;;;;1.48;1.38;;;;;;;14.75;100.00;101321.22;5053235;28;20029;-53
2023/08/13 10:34:50;;;;;;;1.67;1.58;;;;;;;14.72;100.00;101316.28;5052806;28;20040;-52
2023/08/13 10:37:21;;;;;;;2.13;1.92;;;;;;;14.77;100.00;101313.75;5052984;28;20059;-52
2023/08/13 10:40:08;;;;;;;1.30;1.20;;;;;;;14.82;100.00;101316.56;5051278;28;20037;-52
2023/08/13 10:42:36;;;;;;;1.48;1.38;;;;;;;14.95;100.00;101316.47;5050780;28;20360;-52
2023/08/13 10:45:10;;;;;;;1.42;1.33;;;;;;;15.01;99.40;101302.09;5052447;28;20060;-52
2023/08/13 10:47:47;;;;;;;1.20;1.05;;;;;;;15.01;97.99;101299.38;5052139;28;20017;-53
2023/08/13 10:50:24;;;;;;;1.55;1.30;;;;;;;14.92;98.26;101297.22;5049222;28;20021;-53
2023/08/13 10:52:52;;;;;;;1.17;1.08;;;;;;;14.85;99.70;101293.75;5052656;28;20413;-52
2023/08/13 10:55:24;;;;;;;1.50;1.40;;;;;;;14.86;100.00;101280.06;5052464;28;20029;-53
2023/08/13 10:57:52;;;;;;;3.60;2.58;;;;;;;14.85;100.00;101286.50;5052333;28;20043;-53
2023/08/13 11:00:21;;;;;;;2.70;2.50;;;;;;;14.94;100.00;101284.34;5049873;28;20544;-53
2023/08/13 11:02:52;;;;;;;3.47;3.17;;;;;;;14.81;100.00;101296.06;5036619;28;20030;-52
2023/08/13 11:05:20;;;;;;;2.60;2.40;;;;;;;14.94;99.59;101293.25;5052203;28;20053;-53
2023/08/13 11:07:47;;;;;;;2.40;1.80;;;;;;;14.98;99.83;101285.53;5050641;28;20039;-53
2023/08/13 11:10:20;;;;;;;2.28;1.40;;;;;;;15.00;99.22;101284.28;5050665;28;20461;-53
2023/08/13 11:12:47;;;;;;;1.23;1.13;;;;;;;15.10;98.93;101266.72;5051877;28;20466;-53
2023/08/13 11:15:15;;;;;;;1.45;1.30;;;;;;;15.11;98.67;101260.31;5052007;28;20077;-53
2023/08/13 11:17:49;;;;;;;2.65;2.10;;;;;;;15.00;99.26;101257.31;5051754;28;20479;-52
2023/08/13 11:20:20;;;;;;;2.65;1.95;;;;;;;15.00;99.75;101246.53;5049633;28;20021;-53
2023/08/13 11:22:47;;;;;;;4.22;2.55;;;;;;;14.93;100.00;101253.84;5050669;28;20067;-52
2023/08/13 11:25:14;;;;;;;2.60;2.40;;;;;;;14.87;100.00;101252.06;5051938;28;20071;-51
2023/08/13 11:27:41;;;;;;;2.92;2.63;;;;;;;14.88;100.00;101248.34;5052180;28;20035;-53